Time;durP1;ratioP1;P1;durP2;ratioP2;P2;SDS_P1;SDS_P2;PMS_P1;PMS_P2;Temp;Humidity;BMP_temperature;BMP_pressure;BME280_temperature;BME280_humidity;BME280_pressure;Samples;Min_cycle;Max_cycle;Signal;HPM_P1;HPM_P2
2022/02/20 00:00:19;;;;;;;5.87;1.93;;;7.60;1.00;8.00;100095.00;;;;5029837;28;20509;-79
2022/02/20 00:02:49;;;;;;;6.20;1.40;;;7.70;1.00;8.10;100067.00;;;;5006577;28;20532;-79
2022/02/20 00:05:17;;;;;;;3.20;1.70;;;7.70;1.00;8.10;100094.00;;;;5032533;28;21424;-79
2022/02/20 00:07:47;;;;;;;6.63;1.90;;;7.60;1.00;8.10;100064.00;;;;5017744;28;21604;-79
2022/02/20 00:10:15;;;;;;;7.17;1.63;;;7.60;1.00;8.10;100038.00;;;;5007241;28;20468;-79
2022/02/20 00:12:45;;;;;;;3.80;1.73;;;7.60;1.00;8.10;100115.00;;;;5016881;28;20482;-79
2022/02/20 00:15:14;;;;;;;4.60;1.70;;;7.70;1.00;8.20;100099.00;;;;5010990;28;20461;-81
2022/02/20 00:17:43;;;;;;;6.37;1.80;;;7.70;1.00;8.30;100087.00;;;;5016283;28;20499;-79
2022/02/20 00:20:12;;;;;;;4.73;1.57;;;7.90;1.00;8.30;100097.00;;;;5012610;28;20559;-80
2022/02/20 00:22:40;;;;;;;3.70;1.60;;;7.80;1.00;8.20;100064.00;;;;5015056;28;20486;-78
2022/02/20 00:25:11;;;;;;;7.83;1.60;;;7.80;1.00;8.20;100100.00;;;;5017856;28;20461;-79
2022/02/20 00:27:40;;;;;;;3.00;1.30;;;7.70;1.00;8.30;100092.00;;;;5017411;28;20532;-80
2022/02/20 00:30:09;;;;;;;4.57;1.60;;;7.80;1.00;8.30;100092.00;;;;5014618;28;20488;-79
2022/02/20 00:32:38;;;;;;;3.70;1.70;;;7.80;1.00;8.30;100094.00;;;;5013596;28;20862;-78
2022/02/20 00:35:07;;;;;;;6.80;1.77;;;7.90;1.00;8.30;100100.00;;;;5015819;28;20966;-79
2022/02/20 00:37:36;;;;;;;5.70;1.63;;;7.80;1.00;8.30;100087.00;;;;5025120;28;20478;-79
2022/02/20 00:40:06;;;;;;;6.93;2.10;;;7.80;1.00;8.30;100097.00;;;;5015907;28;20458;-79
2022/02/20 00:42:35;;;;;;;3.43;1.47;;;7.80;1.00;8.30;100104.00;;;;5007712;28;20468;-78
2022/02/20 00:45:04;;;;;;;5.67;1.50;;;7.90;1.00;8.30;100098.00;;;;5018933;28;20456;-78
2022/02/20 00:47:33;;;;;;;10.53;2.00;;;7.80;1.00;8.30;100087.00;;;;5014501;28;20461;-79
2022/02/20 00:50:01;;;;;;;4.67;1.87;;;8.00;1.00;8.30;100010.00;;;;5014936;28;20454;-80
2022/02/20 00:52:29;;;;;;;3.80;2.30;;;7.90;1.00;8.30;100043.00;;;;5017610;28;20881;-79
2022/02/20 00:54:58;;;;;;;6.73;1.50;;;7.80;1.00;8.40;100080.00;;;;5017287;28;20473;-79
2022/02/20 00:57:32;;;;;;;6.17;1.90;;;7.80;1.00;8.40;100022.00;;;;5022461;28;20480;-81
2022/02/20 01:00:03;;;;;;;5.40;1.90;;;7.90;1.00;8.40;100077.00;;;;5028014;28;20449;-79
2022/02/20 01:02:32;;;;;;;6.43;2.43;;;8.00;1.00;8.40;100082.00;;;;5038004;28;21017;-78
2022/02/20 01:05:01;;;;;;;2.90;1.07;;;8.00;1.00;8.50;100096.00;;;;5038033;28;20454;-78
2022/02/20 01:07:30;;;;;;;4.60;1.80;;;8.00;1.00;8.50;100097.00;;;;5027055;28;20457;-78
2022/02/20 01:09:59;;;;;;;2.47;1.33;;;8.30;1.00;8.50;100079.00;;;;5033497;28;20884;-77
2022/02/20 01:12:27;;;;;;;3.40;1.40;;;8.00;1.00;8.50;100095.00;;;;5044231;28;20476;-78
2022/02/20 01:14:57;;;;;;;4.07;1.60;;;8.10;1.00;8.50;100091.00;;;;5027995;28;20552;-80
2022/02/20 01:17:28;;;;;;;4.30;1.13;;;8.10;1.00;8.50;100079.00;;;;5034344;28;20460;-80
2022/02/20 01:19:56;;;;;;;3.80;1.80;;;8.10;1.00;8.50;100086.00;;;;5037405;28;20549;-80
2022/02/20 01:22:25;;;;;;;3.97;1.60;;;8.10;1.00;8.60;100096.00;;;;5037965;28;20500;-79
2022/02/20 01:24:55;;;;;;;6.17;1.77;;;8.10;1.00;8.50;100109.00;;;;5042266;28;20426;-80
2022/02/20 01:27:26;;;;;;;3.57;1.30;;;8.10;1.00;8.60;100109.00;;;;5055886;28;20458;-80
2022/02/20 01:29:54;;;;;;;3.93;1.50;;;8.10;1.00;8.60;100094.00;;;;5039895;28;20509;-79
2022/02/20 01:32:23;;;;;;;4.53;1.70;;;8.10;1.00;8.60;100113.00;;;;5044316;28;20571;-79
2022/02/20 01:34:52;;;;;;;4.53;1.80;;;8.10;1.00;8.60;100109.00;;;;5033926;28;20488;-80
2022/02/20 01:37:23;;;;;;;2.53;1.00;;;8.10;1.00;8.60;100112.00;;;;5020200;28;20533;-80
2022/02/20 01:39:52;;;;;;;2.73;1.20;;;8.20;1.00;8.60;100117.00;;;;5020030;28;21267;-78
2022/02/20 01:42:24;;;;;;;2.90;0.90;;;8.20;1.00;8.60;100095.00;;;;5019682;28;20488;-79
2022/02/20 01:44:53;;;;;;;3.60;1.50;;;8.20;1.00;8.50;100107.00;;;;5015143;28;20522;-80
2022/02/20 01:47:23;;;;;;;4.73;1.47;;;8.00;1.00;8.50;100115.00;;;;5040373;28;20492;-80
2022/02/20 01:49:54;;;;;;;6.03;1.60;;;8.00;1.00;8.60;100115.00;;;;5015879;28;20474;-80
2022/02/20 01:52:23;;;;;;;5.17;1.70;;;8.10;1.00;8.60;100093.00;;;;5011424;28;20469;-80
2022/02/20 01:54:57;;;;;;;3.90;1.67;;;8.10;1.00;8.60;100109.00;;;;5017022;28;20459;-78
2022/02/20 01:57:27;;;;;;;7.83;1.70;;;8.10;1.00;8.60;100111.00;;;;5017420;28;20546;-81
2022/02/20 02:00:31;;;;;;;4.77;1.70;;;8.10;1.00;8.60;100119.00;;;;5015548;28;20445;-79
2022/02/20 02:03:16;;;;;;;3.37;1.40;;;8.10;1.00;8.60;100127.00;;;;5008834;28;21111;-78
2022/02/20 02:06:13;;;;;;;5.50;1.40;;;8.20;1.00;8.70;100136.00;;;;5014519;28;20830;-79
2022/02/20 02:08:43;;;;;;;3.43;1.20;;;8.20;1.00;8.70;100122.00;;;;5012831;28;20490;-79
2022/02/20 02:11:20;;;;;;;3.10;1.53;;;8.70;1.00;8.70;100108.00;;;;5017798;28;20469;-79
2022/02/20 02:14:04;;;;;;;3.83;1.30;;;8.30;1.00;8.80;100141.00;;;;5019372;28;20531;-81
2022/02/20 02:16:52;;;;;;;4.80;1.60;;;8.30;1.00;8.80;100130.00;;;;5015989;28;20813;-80
2022/02/20 02:19:44;;;;;;;6.00;1.47;;;8.30;1.00;8.80;100120.00;;;;5034457;28;21029;-80
2022/02/20 02:22:24;;;;;;;3.37;1.70;;;8.40;1.00;8.80;100131.00;;;;5014930;28;20476;-80
2022/02/20 02:25:10;;;;;;;3.87;1.30;;;8.40;1.00;8.80;100126.00;;;;5015344;28;20461;-79
2022/02/20 02:28:10;;;;;;;3.83;1.90;;;8.40;1.00;8.60;100133.00;;;;5017731;28;20452;-79
2022/02/20 02:30:48;;;;;;;6.93;1.90;;;8.20;1.00;8.40;100137.00;;;;5031746;28;20981;-80
2022/02/20 02:33:28;;;;;;;4.83;1.63;;;8.00;1.00;8.30;100127.00;;;;5016731;28;20480;-78
2022/02/20 02:35:57;;;;;;;4.83;1.40;;;7.90;1.00;8.20;100140.00;;;;5033092;28;20458;-81
2022/02/20 02:38:29;;;;;;;4.63;1.43;;;7.80;1.00;8.20;100104.00;;;;5032291;28;20481;-78
2022/02/20 02:41:01;;;;;;;4.00;1.13;;;7.70;1.00;8.10;100120.00;;;;5035498;28;20502;-80
2022/02/20 02:43:29;;;;;;;4.20;1.27;;;7.70;1.00;8.10;100098.00;;;;5035195;28;20472;-80
2022/02/20 02:45:58;;;;;;;5.43;1.70;;;7.60;1.00;8.00;100151.00;;;;5035059;28;20519;-81
2022/02/20 02:48:26;;;;;;;5.00;1.50;;;7.60;1.00;8.00;100147.00;;;;5017635;28;20452;-79
2022/02/20 02:50:56;;;;;;;4.03;2.00;;;7.60;1.00;8.00;100117.00;;;;5022985;28;20449;-79
2022/02/20 02:53:25;;;;;;;6.67;1.70;;;7.50;1.00;8.00;100144.00;;;;5021923;28;20454;-80
2022/02/20 02:55:55;;;;;;;5.03;1.70;;;7.50;1.00;8.10;100151.00;;;;5020800;28;20441;-79
2022/02/20 02:58:28;;;;;;;4.13;1.90;;;7.60;1.00;8.10;100147.00;;;;5018994;28;21066;-79
2022/02/20 03:01:03;;;;;;;6.70;2.07;;;7.60;1.00;8.10;100136.00;;;;5035610;28;20480;-78
2022/02/20 03:03:32;;;;;;;8.23;2.20;;;7.60;1.00;8.10;100143.00;;;;5018938;28;20445;-79
2022/02/20 03:06:08;;;;;;;4.77;2.30;;;7.60;1.00;8.10;100145.00;;;;5019793;28;20826;-79
2022/02/20 03:08:36;;;;;;;3.63;1.40;;;7.90;1.00;8.10;100153.00;;;;5017282;28;20547;-78
2022/02/20 03:11:07;;;;;;;3.73;2.00;;;7.60;1.00;8.10;100164.00;;;;5018047;28;20476;-78
2022/02/20 03:13:36;;;;;;;6.30;2.50;;;7.60;1.00;8.00;100169.00;;;;5013107;28;20461;-78
2022/02/20 03:16:12;;;;;;;6.03;1.90;;;7.80;1.00;8.10;100165.00;;;;5033093;28;21075;-79
2022/02/20 03:18:45;;;;;;;4.03;2.33;;;7.60;1.00;8.10;100171.00;;;;5015137;28;21049;-78
2022/02/20 03:21:20;;;;;;;3.97;1.40;;;7.70;1.00;8.20;100170.00;;;;5009408;28;20479;-79
2022/02/20 03:23:48;;;;;;;6.20;2.30;;;7.60;1.00;8.10;100173.00;;;;5034664;28;20544;-80
2022/02/20 03:26:18;;;;;;;5.77;1.97;;;7.60;1.00;8.10;100188.00;;;;5033169;28;20457;-80
2022/02/20 03:28:49;;;;;;;7.00;2.10;;;7.60;1.00;8.00;100183.00;;;;5015301;28;20468;-78
2022/02/20 03:31:20;;;;;;;3.77;1.53;;;7.60;1.00;8.00;100193.00;;;;5031867;28;20465;-78
2022/02/20 03:33:49;;;;;;;11.23;1.47;;;7.50;1.00;8.00;100187.00;;;;5007711;28;22022;-79
2022/02/20 03:36:17;;;;;;;3.80;1.60;;;7.50;1.00;8.00;100196.00;;;;5017747;28;21012;-79
2022/02/20 03:38:45;;;;;;;4.60;2.03;;;7.70;1.00;8.10;100200.00;;;;5017468;28;20449;-78
2022/02/20 03:41:19;;;;;;;8.07;1.80;;;7.50;1.00;8.00;100216.00;;;;5007112;28;20928;-81
2022/02/20 03:43:48;;;;;;;3.33;1.43;;;7.50;1.00;8.00;100209.00;;;;5023069;28;20462;-79
2022/02/20 03:46:17;;;;;;;5.93;1.50;;;7.50;1.00;8.00;100206.00;;;;5016528;28;20564;-79
2022/02/20 03:49:03;;;;;;;5.00;1.80;;;7.50;1.00;8.00;100212.00;;;;5016948;28;20441;-78
2022/02/20 03:51:50;;;;;;;5.80;1.90;;;7.50;1.00;8.00;100221.00;;;;5015411;28;20601;-80
2022/02/20 03:54:23;;;;;;;4.30;1.33;;;7.50;1.00;8.00;100222.00;;;;5015288;28;20867;-80
2022/02/20 03:56:53;;;;;;;5.30;1.40;;;7.50;1.00;8.00;100220.00;;;;5016275;28;20483;-79
2022/02/20 03:59:41;;;;;;;3.20;1.20;;;7.50;1.00;8.00;100220.00;;;;5017255;28;20522;-78
2022/02/20 04:02:09;;;;;;;4.90;1.87;;;7.50;1.00;8.00;100246.00;;;;5016699;28;20482;-79
2022/02/20 04:04:38;;;;;;;6.73;1.40;;;7.50;1.00;8.00;100240.00;;;;5017628;28;20453;-78
2022/02/20 04:07:08;;;;;;;3.50;1.70;;;7.40;1.00;8.10;100258.00;;;;5030442;28;20900;-78
2022/02/20 04:09:36;;;;;;;3.40;1.67;;;7.50;1.00;8.10;100250.00;;;;5032317;28;20471;-78
2022/02/20 04:12:12;;;;;;;4.63;1.50;;;7.60;1.00;8.20;100256.00;;;;5024475;28;20554;-78
2022/02/20 04:14:41;;;;;;;4.57;1.53;;;8.00;1.00;8.20;100263.00;;;;5015766;28;20487;-78
2022/02/20 04:17:12;;;;;;;4.83;1.70;;;7.60;1.00;8.20;100277.00;;;;5031461;28;20507;-80
2022/02/20 04:19:44;;;;;;;4.57;1.33;;;7.70;1.00;8.20;100264.00;;;;5028110;28;20523;-79
2022/02/20 04:22:12;;;;;;;4.93;2.30;;;8.00;1.00;8.20;100260.00;;;;5013096;28;20565;-79
2022/02/20 04:24:41;;;;;;;6.10;1.60;;;7.70;1.00;8.20;100246.00;;;;5009021;28;20989;-79
2022/02/20 04:27:13;;;;;;;6.40;1.50;;;7.70;1.00;8.20;100250.00;;;;5007657;28;20449;-79
2022/02/20 04:29:44;;;;;;;3.20;1.23;;;8.00;1.00;8.20;100260.00;;;;5015009;28;20457;-80
2022/02/20 04:32:12;;;;;;;5.47;1.60;;;7.70;1.00;8.30;100250.00;;;;5030965;28;20512;-79
2022/02/20 04:34:42;;;;;;;4.00;1.17;;;7.80;1.00;8.20;100255.00;;;;5007594;28;20461;-79
2022/02/20 04:37:11;;;;;;;3.47;1.40;;;7.70;1.00;8.20;100263.00;;;;5030037;28;20547;-81
2022/02/20 04:39:40;;;;;;;2.97;1.33;;;7.80;1.00;8.20;100266.00;;;;5030869;28;20476;-78
2022/02/20 04:42:09;;;;;;;4.90;1.30;;;7.70;1.00;8.10;100246.00;;;;5014339;28;20487;-78
2022/02/20 04:44:44;;;;;;;6.80;1.70;;;7.70;1.00;8.10;100270.00;;;;5023963;28;20445;-79
2022/02/20 04:47:21;;;;;;;5.10;1.53;;;7.70;1.00;8.10;100281.00;;;;5031461;28;20460;-80
2022/02/20 04:49:49;;;;;;;5.17;2.10;;;7.60;1.00;8.10;100262.00;;;;5005846;28;20454;-79
2022/02/20 04:52:22;;;;;;;4.67;1.77;;;7.80;1.00;8.10;100276.00;;;;5032975;28;20497;-79
2022/02/20 04:55:09;;;;;;;4.87;1.73;;;7.60;1.00;8.10;100279.00;;;;5015848;28;20506;-81
2022/02/20 04:57:41;;;;;;;4.20;1.50;;;7.60;1.00;8.00;100280.00;;;;5016541;28;20524;-80
2022/02/20 05:00:19;;;;;;;3.43;1.27;;;7.90;1.00;8.00;100263.00;;;;5022581;28;20486;-79
2022/02/20 05:03:10;;;;;;;3.20;1.40;;;7.60;1.00;8.00;100279.00;;;;5025111;28;20454;-80
2022/02/20 05:06:00;;;;;;;5.53;1.67;;;7.60;1.00;8.10;100272.00;;;;5016068;28;20599;-80
2022/02/20 05:08:49;;;;;;;2.97;1.60;;;7.60;1.00;8.10;100288.00;;;;5035966;28;20471;-80
2022/02/20 05:11:24;;;;;;;3.37;1.23;;;7.90;1.00;8.10;100283.00;;;;5046523;28;20466;-81
2022/02/20 05:13:59;;;;;;;4.10;2.83;;;7.60;1.00;8.10;100287.00;;;;5033384;28;20464;-80
2022/02/20 05:16:31;;;;;;;3.47;1.37;;;7.60;1.00;8.10;100297.00;;;;5036687;28;20461;-81
2022/02/20 05:19:03;;;;;;;3.13;1.07;;;7.60;1.00;8.10;100276.00;;;;5033510;28;20449;-80
2022/02/20 05:21:33;;;;;;;6.00;1.90;;;7.60;1.00;8.10;100292.00;;;;5032880;28;20963;-80
2022/02/20 05:24:02;;;;;;;4.47;1.50;;;7.60;1.00;8.10;100306.00;;;;5041115;28;20575;-80
2022/02/20 05:26:33;;;;;;;2.67;1.37;;;7.70;1.00;8.10;100293.00;;;;5041101;28;20450;-80
2022/02/20 05:29:03;;;;;;;5.03;1.40;;;7.60;1.00;8.10;100264.00;;;;5048327;28;20449;-78
2022/02/20 05:31:34;;;;;;;4.33;1.70;;;7.70;1.00;8.20;100311.00;;;;5037762;28;20486;-79
2022/02/20 05:34:09;;;;;;;4.77;1.50;;;7.70;1.00;8.10;100302.00;;;;5022987;28;20458;-79
2022/02/20 05:36:43;;;;;;;5.07;1.50;;;8.00;1.00;8.10;100305.00;;;;5038120;28;20484;-79
2022/02/20 05:39:19;;;;;;;3.47;1.33;;;7.60;1.00;8.10;100303.00;;;;5019227;28;20539;-79
2022/02/20 05:41:49;;;;;;;9.87;1.90;;;7.60;1.00;8.00;100284.00;;;;5018114;28;20485;-79
2022/02/20 05:44:18;;;;;;;5.27;1.40;;;7.70;1.00;8.20;100304.00;;;;5034024;28;20472;-80
2022/02/20 05:46:56;;;;;;;3.30;1.20;;;7.70;1.00;8.30;100290.00;;;;5031870;28;20457;-80
2022/02/20 05:49:25;;;;;;;5.57;1.80;;;7.70;1.00;8.20;100291.00;;;;5013724;28;20551;-80
2022/02/20 05:51:57;;;;;;;4.20;1.73;;;7.70;1.00;8.20;100301.00;;;;5013836;28;20505;-79
2022/02/20 05:54:35;;;;;;;3.57;1.47;;;8.00;1.00;8.10;100286.00;;;;5025020;28;20465;-81
2022/02/20 05:57:05;;;;;;;4.43;1.53;;;7.60;1.00;8.10;100288.00;;;;5006684;28;20454;-79
2022/02/20 05:59:37;;;;;;;4.90;1.90;;;7.60;1.00;8.00;100299.00;;;;5022556;28;20454;-79
2022/02/20 06:02:07;;;;;;;5.13;2.00;;;7.50;1.00;8.00;100301.00;;;;5029038;28;20579;-79
2022/02/20 06:04:36;;;;;;;4.23;1.73;;;7.50;1.00;8.00;100296.00;;;;5010238;28;20457;-80
2022/02/20 06:07:33;;;;;;;2.90;1.57;;;7.40;1.00;8.00;100305.00;;;;5027261;28;20465;-80
2022/02/20 06:10:28;;;;;;;5.73;1.73;;;7.50;1.00;8.00;100323.00;;;;5010713;28;20612;-80
2022/02/20 06:13:17;;;;;;;3.70;1.60;;;7.50;1.00;8.10;100283.00;;;;5017597;28;20808;-80
2022/02/20 06:16:00;;;;;;;5.60;2.10;;;7.60;1.00;8.00;100308.00;;;;5011374;28;20534;-80
2022/02/20 06:18:49;;;;;;;4.67;1.77;;;7.60;1.00;8.00;100320.00;;;;5019132;28;20535;-80
2022/02/20 06:21:28;;;;;;;6.97;1.93;;;7.50;1.00;8.10;100310.00;;;;5010860;28;20857;-80
2022/02/20 06:24:15;;;;;;;4.97;1.63;;;7.50;1.00;8.10;100302.00;;;;5028179;28;20472;-80
2022/02/20 06:26:58;;;;;;;5.80;2.00;;;7.60;1.00;7.90;100312.00;;;;5011910;28;20461;-81
2022/02/20 06:29:27;;;;;;;9.30;2.10;;;7.60;1.00;8.10;100300.00;;;;5020884;28;20544;-79
2022/02/20 06:31:56;;;;;;;7.40;1.70;;;7.60;1.00;8.20;100310.00;;;;5037727;28;20508;-79
2022/02/20 06:34:27;;;;;;;6.03;1.80;;;7.70;1.00;8.20;100298.00;;;;5033258;28;20442;-79
2022/02/20 06:36:55;;;;;;;3.40;1.53;;;7.80;1.00;8.20;100287.00;;;;5004137;28;20445;-79
2022/02/20 06:39:23;;;;;;;4.30;2.00;;;7.80;1.00;8.20;100308.00;;;;5009602;28;20458;-79
2022/02/20 06:41:53;;;;;;;4.40;2.00;;;7.70;1.00;8.20;100325.00;;;;5008584;28;20485;-80
2022/02/20 06:44:21;;;;;;;6.27;2.00;;;7.80;1.00;8.30;100308.00;;;;5027553;28;20492;-79
2022/02/20 06:46:49;;;;;;;7.30;2.20;;;7.80;1.00;8.40;100311.00;;;;5012255;28;20529;-79
2022/02/20 06:49:31;;;;;;;5.03;2.53;;;7.90;1.00;8.40;100316.00;;;;5011909;28;20496;-79
2022/02/20 06:52:25;;;;;;;4.53;2.10;;;7.90;1.00;8.40;100301.00;;;;5011428;28;21010;-80
2022/02/20 06:55:13;;;;;;;4.63;2.43;;;8.00;1.00;8.50;100331.00;;;;5014861;28;20468;-79
2022/02/20 06:57:56;;;;;;;5.93;2.80;;;8.20;1.00;8.50;100321.00;;;;5017963;28;20464;-80
2022/02/20 07:00:25;;;;;;;7.67;2.90;;;8.10;1.00;8.40;100332.00;;;;5022567;28;20449;-82
2022/02/20 07:02:53;;;;;;;4.23;2.20;;;8.10;1.00;8.50;100336.00;;;;5015221;28;20473;-80
2022/02/20 07:05:23;;;;;;;6.63;2.70;;;8.10;1.00;8.60;100315.00;;;;5020421;28;20461;-80
2022/02/20 07:07:51;;;;;;;6.80;2.73;;;8.10;1.00;8.60;100318.00;;;;5016975;28;20639;-80
2022/02/20 07:10:19;;;;;;;4.60;2.33;;;8.20;1.00;8.60;100312.00;;;;5016449;28;20461;-79
2022/02/20 07:12:48;;;;;;;6.00;2.73;;;8.20;1.00;8.70;100317.00;;;;5031228;28;20504;-79
2022/02/20 07:15:16;;;;;;;8.70;2.10;;;8.30;1.00;8.70;100318.00;;;;5030432;28;20993;-78
2022/02/20 07:17:47;;;;;;;9.40;3.03;;;8.30;1.00;8.80;100289.00;;;;5022086;28;20512;-80
2022/02/20 07:20:15;;;;;;;4.90;2.50;;;8.30;1.00;8.80;100312.00;;;;5015731;28;20981;-81
2022/02/20 07:22:45;;;;;;;4.40;2.70;;;8.30;1.00;8.90;100296.00;;;;5017313;28;20488;-80
2022/02/20 07:25:14;;;;;;;6.27;2.70;;;8.70;1.00;8.80;100280.00;;;;5015843;28;20458;-80
2022/02/20 07:27:44;;;;;;;6.60;2.40;;;8.40;1.00;8.80;100288.00;;;;5009315;28;20504;-81
2022/02/20 07:30:15;;;;;;;5.20;2.77;;;8.30;1.00;8.90;100301.00;;;;5028817;28;20837;-79
2022/02/20 07:32:43;;;;;;;4.67;2.37;;;8.40;1.00;8.90;100309.00;;;;5017446;28;20481;-79
2022/02/20 07:35:11;;;;;;;5.60;2.70;;;8.40;1.00;8.90;100309.00;;;;5016919;28;20639;-81
2022/02/20 07:37:40;;;;;;;7.40;2.53;;;8.50;1.00;9.00;100313.00;;;;5016329;28;20449;-80
2022/02/20 07:40:11;;;;;;;5.67;2.17;;;8.50;1.00;9.10;100301.00;;;;5008777;28;20468;-80
2022/02/20 07:42:40;;;;;;;7.30;3.50;;;8.60;1.00;9.10;100296.00;;;;5018405;28;21026;-78
2022/02/20 07:45:09;;;;;;;6.13;2.50;;;8.60;1.00;9.10;100293.00;;;;5033925;28;20453;-79
2022/02/20 07:47:56;;;;;;;4.60;2.43;;;8.70;1.00;9.10;100301.00;;;;5016963;28;20490;-80
2022/02/20 07:50:26;;;;;;;5.83;2.43;;;8.60;1.00;9.10;100287.00;;;;5025495;28;20462;-81
2022/02/20 07:52:55;;;;;;;6.13;2.90;;;8.60;1.00;9.10;100291.00;;;;5030172;28;20480;-80
2022/02/20 07:55:27;;;;;;;8.47;2.63;;;8.70;1.00;9.20;100310.00;;;;5026972;28;20523;-79
2022/02/20 07:57:56;;;;;;;6.07;2.50;;;8.70;1.00;9.20;100304.00;;;;5038660;28;20467;-80
2022/02/20 08:00:30;;;;;;;4.10;2.30;;;8.70;1.00;9.20;100288.00;;;;5027163;28;20456;-81
2022/02/20 08:02:59;;;;;;;4.87;2.60;;;8.70;1.00;9.10;100311.00;;;;5026872;28;20477;-80
2022/02/20 08:05:28;;;;;;;5.03;2.20;;;8.70;1.00;9.10;100295.00;;;;5019762;28;20457;-79
2022/02/20 08:07:56;;;;;;;6.00;3.07;;;8.70;1.00;9.10;100276.00;;;;5018922;28;20939;-81
2022/02/20 08:10:26;;;;;;;4.03;2.23;;;8.60;1.00;9.00;100298.00;;;;5027931;28;20488;-81
2022/02/20 08:12:56;;;;;;;7.47;2.40;;;8.50;1.00;9.00;100281.00;;;;5039155;28;20564;-81
2022/02/20 08:15:25;;;;;;;5.60;2.57;;;8.60;1.00;9.00;100301.00;;;;5028932;28;20539;-79
2022/02/20 08:17:53;;;;;;;7.10;2.93;;;8.50;1.00;9.00;100282.00;;;;5022606;28;20450;-79
2022/02/20 08:20:22;;;;;;;6.07;2.67;;;8.50;1.00;9.00;100262.00;;;;5009169;28;20472;-79
2022/02/20 08:22:50;;;;;;;6.80;1.90;;;8.50;1.00;9.00;100297.00;;;;5017154;28;20497;-77
2022/02/20 08:25:18;;;;;;;5.67;2.23;;;8.50;1.00;9.00;100296.00;;;;5016600;28;20500;-81
2022/02/20 08:27:52;;;;;;;4.90;1.87;;;8.50;1.00;9.00;100245.00;;;;5023208;28;20496;-80
2022/02/20 08:30:21;;;;;;;3.73;2.40;;;8.50;1.00;8.90;100309.00;;;;5021764;28;21205;-78
2022/02/20 08:32:50;;;;;;;10.03;2.60;;;8.50;1.00;9.00;100312.00;;;;5020325;28;20492;-78
2022/02/20 08:35:18;;;;;;;3.90;2.50;;;8.50;1.00;8.90;100292.00;;;;5018336;28;20464;-79
2022/02/20 08:37:47;;;;;;;7.77;2.93;;;8.70;1.00;8.90;100304.00;;;;5038815;28;20532;-79
2022/02/20 08:40:18;;;;;;;4.90;2.50;;;8.50;1.00;9.00;100290.00;;;;5025605;28;20480;-79
2022/02/20 08:42:48;;;;;;;4.60;2.30;;;8.50;1.00;8.90;100304.00;;;;5045048;28;20485;-79
2022/02/20 08:45:18;;;;;;;4.73;2.27;;;8.40;1.00;8.90;100262.00;;;;5034540;28;20458;-81
2022/02/20 08:47:47;;;;;;;6.23;2.33;;;8.50;1.00;9.00;100278.00;;;;5023580;28;20440;-79
2022/02/20 08:50:16;;;;;;;7.00;2.57;;;8.50;1.00;8.90;100288.00;;;;5032462;28;20457;-80
2022/02/20 08:52:46;;;;;;;10.83;3.50;;;8.80;1.00;9.00;100275.00;;;;5029452;28;20528;-80
2022/02/20 08:55:15;;;;;;;6.30;3.00;;;8.80;1.00;8.90;100271.00;;;;5028887;28;20483;-79
2022/02/20 08:57:44;;;;;;;9.43;2.67;;;8.50;1.00;8.90;100265.00;;;;5030415;28;20452;-81
2022/02/20 09:00:15;;;;;;;6.40;1.97;;;8.80;1.00;8.90;100242.00;;;;5030405;28;20516;-80
2022/02/20 09:02:45;;;;;;;6.87;2.70;;;8.40;1.00;8.90;100262.00;;;;5024906;28;20472;-80
2022/02/20 09:05:14;;;;;;;4.70;2.20;;;8.40;1.00;8.80;100266.00;;;;5023916;28;20445;-80
2022/02/20 09:07:42;;;;;;;9.97;2.40;;;8.40;1.00;8.80;100269.00;;;;5022197;28;20454;-79
2022/02/20 09:10:11;;;;;;;5.40;2.50;;;8.30;1.00;8.80;100260.00;;;;5021159;28;20450;-80
2022/02/20 09:12:42;;;;;;;8.13;2.40;;;8.60;1.00;8.90;100224.00;;;;5021005;28;20480;-81
2022/02/20 09:15:12;;;;;;;7.20;2.10;;;8.40;1.00;8.80;100234.00;;;;5036135;28;20569;-81
2022/02/20 09:17:41;;;;;;;4.43;2.20;;;8.30;1.00;8.80;100238.00;;;;5027155;28;20541;-79
2022/02/20 09:20:12;;;;;;;5.07;2.20;;;8.30;1.00;8.80;100231.00;;;;5039077;28;20532;-80
2022/02/20 09:22:42;;;;;;;4.97;2.30;;;8.30;1.00;8.80;100198.00;;;;5020092;28;21285;-80
2022/02/20 09:25:12;;;;;;;2.17;1.43;;;8.30;1.00;8.80;100216.00;;;;5014705;28;20454;-79
2022/02/20 09:27:42;;;;;;;3.40;2.07;;;8.30;1.00;8.70;100214.00;;;;5042630;28;20499;-80
2022/02/20 09:30:12;;;;;;;4.20;2.53;;;8.20;1.00;8.80;100227.00;;;;5009649;28;20528;-81
2022/02/20 09:32:41;;;;;;;4.57;2.27;;;8.20;1.00;8.70;100225.00;;;;5026791;28;20551;-80
2022/02/20 09:35:12;;;;;;;4.20;1.70;;;8.70;1.00;8.90;100213.00;;;;5026229;28;20481;-80
2022/02/20 09:37:41;;;;;;;3.53;2.10;;;8.40;1.00;9.00;100190.00;;;;5033544;28;20449;-80
2022/02/20 09:40:11;;;;;;;4.97;2.20;;;8.50;1.00;9.10;100225.00;;;;5018100;28;20453;-82
2022/02/20 09:42:39;;;;;;;4.93;1.83;;;8.60;1.00;9.00;100210.00;;;;5042496;28;20501;-80
2022/02/20 09:45:09;;;;;;;4.50;1.93;;;8.50;1.00;9.00;100203.00;;;;5022846;28;20847;-81
2022/02/20 09:47:39;;;;;;;7.63;2.40;;;8.50;1.00;8.90;100220.00;;;;5034583;28;20528;-79
2022/02/20 09:50:11;;;;;;;6.03;3.03;;;8.50;1.00;9.10;100205.00;;;;5027939;28;20464;-80
2022/02/20 09:52:40;;;;;;;3.43;1.70;;;8.60;1.00;9.10;100218.00;;;;5027153;28;20476;-81
2022/02/20 09:55:09;;;;;;;5.97;1.77;;;8.60;1.00;52.70;160583.00;;;;5023721;28;20830;-82
2022/02/20 09:57:38;;;;;;;2.60;1.90;;;8.60;1.00;9.00;100182.00;;;;5018985;28;20500;-80
2022/02/20 10:00:09;;;;;;;3.20;2.00;;;8.60;1.00;9.00;100192.00;;;;5010552;28;20449;-82
2022/02/20 10:02:42;;;;;;;3.93;2.10;;;8.50;1.00;9.10;100202.00;;;;5023890;28;20470;-81
2022/02/20 10:05:19;;;;;;;3.87;2.23;;;8.60;1.00;9.10;100199.00;;;;5017996;28;20484;-80
2022/02/20 10:07:48;;;;;;;5.07;1.83;;;8.90;1.00;9.10;100184.00;;;;5024119;28;20452;-82
2022/02/20 10:10:20;;;;;;;4.90;2.13;;;8.60;1.00;9.30;100199.00;;;;5024066;28;20563;-79
2022/02/20 10:12:58;;;;;;;5.20;3.17;;;8.80;1.00;9.30;100201.00;;;;5023054;28;20550;-80
2022/02/20 10:15:30;;;;;;;3.00;1.80;;;8.80;1.00;9.20;100150.00;;;;5019047;28;20502;-79
2022/02/20 10:18:21;;;;;;;4.17;1.83;;;9.20;1.00;9.10;100177.00;;;;5018073;28;20462;-79
2022/02/20 10:21:22;;;;;;;3.20;1.70;;;8.70;1.00;9.20;100203.00;;;;4986458;28;20573;-80
2022/02/20 10:24:11;;;;;;;4.27;1.83;;;9.00;1.00;9.30;100195.00;;;;5014901;28;20515;-80
2022/02/20 10:27:08;;;;;;;3.20;1.23;;;8.80;1.00;9.30;100156.00;;;;5016423;28;20457;-82
2022/02/20 10:30:19;;;;;;;3.30;2.00;;;8.80;1.00;9.30;100183.00;;;;5023575;28;21635;-81
2022/02/20 10:33:04;;;;;;;3.17;1.80;;;8.80;1.00;9.20;100193.00;;;;5027213;28;20512;-81
2022/02/20 10:35:34;;;;;;;5.33;2.10;;;8.70;1.00;9.30;100120.00;;;;5021689;28;20448;-81
2022/02/20 10:38:10;;;;;;;3.20;2.10;;;8.80;1.00;9.20;100193.00;;;;5017396;28;21424;-80
2022/02/20 10:40:39;;;;;;;2.97;1.40;;;9.20;1.00;9.20;100161.00;;;;5023944;28;20460;-80
2022/02/20 10:43:23;;;;;;;3.00;1.90;;;8.80;1.00;9.30;100164.00;;;;5020904;28;20499;-80
2022/02/20 10:46:06;;;;;;;4.50;2.30;;;8.80;1.00;9.40;100162.00;;;;5021922;28;20575;-83
2022/02/20 10:48:39;;;;;;;4.43;2.00;;;8.90;1.00;9.40;100161.00;;;;5010907;28;20646;-80
2022/02/20 10:51:08;;;;;;;5.03;2.57;;;9.00;1.00;9.40;100113.00;;;;5015579;28;21276;-80
2022/02/20 10:53:39;;;;;;;2.93;1.73;;;8.90;1.00;9.40;100138.00;;;;5016724;28;20580;-80
2022/02/20 10:56:07;;;;;;;6.27;1.67;;;8.90;1.00;9.50;100127.00;;;;5020327;28;20571;-79
2022/02/20 10:58:43;;;;;;;4.47;1.87;;;9.20;1.00;9.70;100147.00;;;;5019104;28;20521;-80
2022/02/20 11:01:22;;;;;;;2.57;1.27;;;9.20;1.00;9.70;100139.00;;;;5029678;28;20477;-81
2022/02/20 11:03:51;;;;;;;3.63;1.50;;;9.20;1.00;9.80;100127.00;;;;5028796;28;20485;-79
2022/02/20 11:06:20;;;;;;;2.30;1.00;;;9.30;1.00;9.80;100136.00;;;;5021962;28;20966;-80
2022/02/20 11:08:50;;;;;;;2.60;0.93;;;9.40;1.00;9.90;100153.00;;;;5018067;28;21014;-80
2022/02/20 11:14:02;;;;;;;3.43;1.20;;;9.50;1.00;10.20;100144.00;;;;5003196;28;20999;-79
2022/02/20 11:16:33;;;;;;;2.47;1.00;;;9.70;1.00;10.10;100155.00;;;;5032405;28;20460;-80
2022/02/20 11:19:05;;;;;;;1.73;1.07;;;10.00;1.00;9.90;100154.00;;;;5018377;28;21369;-81
2022/02/20 11:21:39;;;;;;;1.63;1.20;;;9.50;1.00;9.80;100143.00;;;;5011684;28;20486;-82
2022/02/20 11:24:10;;;;;;;2.23;1.20;;;9.40;1.00;9.70;100124.00;;;;5019475;28;20483;-80
2022/02/20 11:26:43;;;;;;;1.83;0.90;;;9.30;1.00;9.80;100135.00;;;;5029734;28;20540;-80
2022/02/20 11:29:12;;;;;;;1.97;0.97;;;9.40;1.00;9.90;100131.00;;;;5021416;28;20462;-78
2022/02/20 11:31:42;;;;;;;1.60;1.00;;;9.50;1.00;10.00;100125.00;;;;5025669;28;20466;-80
2022/02/20 11:34:11;;;;;;;1.87;1.00;;;9.50;1.00;10.00;100116.00;;;;5032222;28;20497;-80
2022/02/20 11:36:52;;;;;;;2.10;1.07;;;9.50;1.00;10.00;100102.00;;;;5025941;28;20458;-81